sensor_id;sensor_type;location;lat;lon;timestamp;P1;durP1;ratioP1;P2;durP2;ratioP2
21681;SDS011;11002;48.256;10.084;2023-07-16T00:00:21;47.88;;;6.97;;
21681;SDS011;11002;48.256;10.084;2023-07-16T00:02:52;7.30;;;4.40;;
21681;SDS011;11002;48.256;10.084;2023-07-16T00:05:20;8.13;;;4.50;;
21681;SDS011;11002;48.256;10.084;2023-07-16T00:07:47;7.60;;;4.70;;
21681;SDS011;11002;48.256;10.084;2023-07-16T00:10:15;8.70;;;4.32;;
21681;SDS011;11002;48.256;10.084;2023-07-16T00:12:44;6.05;;;4.30;;
21681;SDS011;11002;48.256;10.084;2023-07-16T00:15:11;8.50;;;4.60;;
21681;SDS011;11002;48.256;10.084;2023-07-16T00:17:38;6.15;;;4.47;;
21681;SDS011;11002;48.256;10.084;2023-07-16T00:20:06;13.35;;;4.93;;
21681;SDS011;11002;48.256;10.084;2023-07-16T00:22:35;9.98;;;4.80;;
21681;SDS011;11002;48.256;10.084;2023-07-16T00:25:04;10.00;;;4.70;;
21681;SDS011;11002;48.256;10.084;2023-07-16T00:27:32;9.18;;;4.90;;
21681;SDS011;11002;48.256;10.084;2023-07-16T00:30:01;6.13;;;4.22;;
21681;SDS011;11002;48.256;10.084;2023-07-16T00:32:29;9.70;;;4.55;;
21681;SDS011;11002;48.256;10.084;2023-07-16T00:34:56;8.30;;;4.10;;
21681;SDS011;11002;48.256;10.084;2023-07-16T00:37:24;6.25;;;4.20;;
21681;SDS011;11002;48.256;10.084;2023-07-16T00:39:51;6.20;;;4.35;;
21681;SDS011;11002;48.256;10.084;2023-07-16T00:42:19;10.35;;;4.10;;
21681;SDS011;11002;48.256;10.084;2023-07-16T00:44:46;8.15;;;4.65;;
21681;SDS011;11002;48.256;10.084;2023-07-16T00:47:15;11.20;;;4.35;;
21681;SDS011;11002;48.256;10.084;2023-07-16T00:49:42;6.40;;;4.10;;
21681;SDS011;11002;48.256;10.084;2023-07-16T00:52:11;6.85;;;4.28;;
21681;SDS011;11002;48.256;10.084;2023-07-16T00:54:44;5.85;;;3.65;;
21681;SDS011;11002;48.256;10.084;2023-07-16T00:57:12;5.22;;;3.67;;
21681;SDS011;11002;48.256;10.084;2023-07-16T00:59:39;9.85;;;3.53;;
21681;SDS011;11002;48.256;10.084;2023-07-16T01:02:06;6.40;;;3.78;;
21681;SDS011;11002;48.256;10.084;2023-07-16T01:04:35;8.27;;;3.70;;
21681;SDS011;11002;48.256;10.084;2023-07-16T01:07:04;5.28;;;3.13;;
21681;SDS011;11002;48.256;10.084;2023-07-16T01:09:33;7.18;;;3.67;;
21681;SDS011;11002;48.256;10.084;2023-07-16T01:12:02;4.97;;;3.75;;
21681;SDS011;11002;48.256;10.084;2023-07-16T01:14:31;5.57;;;3.33;;
21681;SDS011;11002;48.256;10.084;2023-07-16T01:17:02;11.73;;;3.47;;
21681;SDS011;11002;48.256;10.084;2023-07-16T01:19:32;7.75;;;4.07;;
21681;SDS011;11002;48.256;10.084;2023-07-16T01:22:07;5.40;;;3.70;;
21681;SDS011;11002;48.256;10.084;2023-07-16T01:24:47;5.22;;;3.53;;
21681;SDS011;11002;48.256;10.084;2023-07-16T01:27:33;8.13;;;3.55;;
21681;SDS011;11002;48.256;10.084;2023-07-16T01:30:21;8.88;;;3.78;;
21681;SDS011;11002;48.256;10.084;2023-07-16T01:32:50;6.25;;;2.75;;
21681;SDS011;11002;48.256;10.084;2023-07-16T01:35:18;8.00;;;3.20;;
21681;SDS011;11002;48.256;10.084;2023-07-16T01:37:46;6.20;;;2.92;;
21681;SDS011;11002;48.256;10.084;2023-07-16T01:40:14;5.18;;;2.50;;
21681;SDS011;11002;48.256;10.084;2023-07-16T01:42:41;4.40;;;2.85;;
21681;SDS011;11002;48.256;10.084;2023-07-16T01:45:09;4.28;;;2.40;;
21681;SDS011;11002;48.256;10.084;2023-07-16T01:47:44;5.97;;;2.58;;
21681;SDS011;11002;48.256;10.084;2023-07-16T01:50:16;4.30;;;2.60;;
21681;SDS011;11002;48.256;10.084;2023-07-16T01:52:44;2.72;;;2.33;;
21681;SDS011;11002;48.256;10.084;2023-07-16T01:55:11;6.13;;;2.30;;
21681;SDS011;11002;48.256;10.084;2023-07-16T01:57:38;8.60;;;2.15;;
21681;SDS011;11002;48.256;10.084;2023-07-16T02:00:06;3.90;;;2.17;;
21681;SDS011;11002;48.256;10.084;2023-07-16T02:02:46;5.65;;;2.58;;
21681;SDS011;11002;48.256;10.084;2023-07-16T02:05:14;3.08;;;2.33;;
21681;SDS011;11002;48.256;10.084;2023-07-16T02:07:41;2.75;;;2.33;;
21681;SDS011;11002;48.256;10.084;2023-07-16T02:10:09;2.33;;;2.00;;
21681;SDS011;11002;48.256;10.084;2023-07-16T02:12:36;3.50;;;2.13;;
21681;SDS011;11002;48.256;10.084;2023-07-16T02:15:04;3.72;;;2.05;;
21681;SDS011;11002;48.256;10.084;2023-07-16T02:17:35;3.75;;;2.03;;
21681;SDS011;11002;48.256;10.084;2023-07-16T02:20:05;5.82;;;1.98;;
21681;SDS011;11002;48.256;10.084;2023-07-16T02:22:33;3.67;;;2.00;;
21681;SDS011;11002;48.256;10.084;2023-07-16T02:25:01;2.05;;;1.70;;
21681;SDS011;11002;48.256;10.084;2023-07-16T02:27:29;5.25;;;1.92;;
21681;SDS011;11002;48.256;10.084;2023-07-16T02:29:56;4.93;;;1.83;;
21681;SDS011;11002;48.256;10.084;2023-07-16T02:32:24;5.78;;;1.48;;
21681;SDS011;11002;48.256;10.084;2023-07-16T02:34:51;2.33;;;1.80;;
21681;SDS011;11002;48.256;10.084;2023-07-16T02:37:20;1.67;;;1.30;;
21681;SDS011;11002;48.256;10.084;2023-07-16T02:39:47;2.78;;;1.30;;
21681;SDS011;11002;48.256;10.084;2023-07-16T02:42:14;1.83;;;1.20;;
21681;SDS011;11002;48.256;10.084;2023-07-16T02:44:43;1.45;;;1.25;;
21681;SDS011;11002;48.256;10.084;2023-07-16T02:47:11;1.38;;;0.90;;
21681;SDS011;11002;48.256;10.084;2023-07-16T02:49:38;2.28;;;1.50;;
21681;SDS011;11002;48.256;10.084;2023-07-16T02:52:06;5.20;;;1.30;;
21681;SDS011;11002;48.256;10.084;2023-07-16T02:54:36;3.08;;;1.17;;
21681;SDS011;11002;48.256;10.084;2023-07-16T02:57:03;2.40;;;1.25;;
21681;SDS011;11002;48.256;10.084;2023-07-16T02:59:32;2.95;;;1.30;;
21681;SDS011;11002;48.256;10.084;2023-07-16T03:01:59;8.48;;;1.52;;
21681;SDS011;11002;48.256;10.084;2023-07-16T03:04:26;3.47;;;1.30;;
21681;SDS011;11002;48.256;10.084;2023-07-16T03:06:53;2.58;;;1.45;;
21681;SDS011;11002;48.256;10.084;2023-07-16T03:09:22;2.13;;;1.30;;
21681;SDS011;11002;48.256;10.084;2023-07-16T03:11:50;3.38;;;1.33;;
21681;SDS011;11002;48.256;10.084;2023-07-16T03:14:18;4.63;;;1.30;;
21681;SDS011;11002;48.256;10.084;2023-07-16T03:16:45;1.50;;;1.33;;
21681;SDS011;11002;48.256;10.084;2023-07-16T03:19:13;2.42;;;1.10;;
21681;SDS011;11002;48.256;10.084;2023-07-16T03:21:41;4.32;;;1.50;;
21681;SDS011;11002;48.256;10.084;2023-07-16T03:24:09;5.75;;;1.50;;
21681;SDS011;11002;48.256;10.084;2023-07-16T03:26:36;6.32;;;1.30;;
21681;SDS011;11002;48.256;10.084;2023-07-16T03:29:05;3.25;;;1.55;;
21681;SDS011;11002;48.256;10.084;2023-07-16T03:31:33;3.92;;;1.67;;
21681;SDS011;11002;48.256;10.084;2023-07-16T03:34:00;3.65;;;1.48;;
21681;SDS011;11002;48.256;10.084;2023-07-16T03:36:30;2.33;;;1.38;;
21681;SDS011;11002;48.256;10.084;2023-07-16T03:38:57;1.83;;;1.23;;
21681;SDS011;11002;48.256;10.084;2023-07-16T03:41:24;3.75;;;1.77;;
21681;SDS011;11002;48.256;10.084;2023-07-16T03:43:52;4.05;;;1.48;;
21681;SDS011;11002;48.256;10.084;2023-07-16T03:46:21;2.05;;;1.30;;
21681;SDS011;11002;48.256;10.084;2023-07-16T03:48:49;5.30;;;1.38;;
21681;SDS011;11002;48.256;10.084;2023-07-16T03:51:17;3.72;;;1.40;;
21681;SDS011;11002;48.256;10.084;2023-07-16T03:53:45;3.88;;;1.55;;
21681;SDS011;11002;48.256;10.084;2023-07-16T03:56:13;1.40;;;1.10;;
21681;SDS011;11002;48.256;10.084;2023-07-16T03:58:41;8.50;;;1.42;;
21681;SDS011;11002;48.256;10.084;2023-07-16T04:01:09;2.30;;;1.67;;
21681;SDS011;11002;48.256;10.084;2023-07-16T04:03:37;4.10;;;1.40;;
21681;SDS011;11002;48.256;10.084;2023-07-16T04:06:05;3.10;;;1.35;;
21681;SDS011;11002;48.256;10.084;2023-07-16T04:08:34;3.67;;;1.15;;
21681;SDS011;11002;48.256;10.084;2023-07-16T04:11:02;4.32;;;1.25;;
21681;SDS011;11002;48.256;10.084;2023-07-16T04:13:30;2.63;;;1.60;;
21681;SDS011;11002;48.256;10.084;2023-07-16T04:15:58;4.53;;;1.95;;
21681;SDS011;11002;48.256;10.084;2023-07-16T04:18:25;3.53;;;1.27;;
21681;SDS011;11002;48.256;10.084;2023-07-16T04:20:54;3.50;;;1.45;;
21681;SDS011;11002;48.256;10.084;2023-07-16T04:23:21;2.40;;;1.27;;
21681;SDS011;11002;48.256;10.084;2023-07-16T04:25:51;8.25;;;1.50;;
21681;SDS011;11002;48.256;10.084;2023-07-16T04:28:19;4.43;;;1.50;;
21681;SDS011;11002;48.256;10.084;2023-07-16T04:30:47;2.70;;;1.20;;
21681;SDS011;11002;48.256;10.084;2023-07-16T04:33:14;3.85;;;1.50;;
21681;SDS011;11002;48.256;10.084;2023-07-16T04:35:41;4.72;;;1.35;;
21681;SDS011;11002;48.256;10.084;2023-07-16T04:38:10;3.47;;;0.98;;
21681;SDS011;11002;48.256;10.084;2023-07-16T04:40:37;3.50;;;1.60;;
21681;SDS011;11002;48.256;10.084;2023-07-16T04:43:04;2.65;;;1.45;;
21681;SDS011;11002;48.256;10.084;2023-07-16T04:45:32;1.38;;;1.20;;
21681;SDS011;11002;48.256;10.084;2023-07-16T04:47:59;3.50;;;1.42;;
21681;SDS011;11002;48.256;10.084;2023-07-16T04:50:26;2.88;;;1.40;;
21681;SDS011;11002;48.256;10.084;2023-07-16T04:52:53;1.52;;;1.10;;
21681;SDS011;11002;48.256;10.084;2023-07-16T04:55:22;1.63;;;1.27;;
21681;SDS011;11002;48.256;10.084;2023-07-16T04:57:49;2.63;;;1.45;;
21681;SDS011;11002;48.256;10.084;2023-07-16T05:00:18;2.25;;;1.10;;
21681;SDS011;11002;48.256;10.084;2023-07-16T05:02:46;1.45;;;1.05;;
21681;SDS011;11002;48.256;10.084;2023-07-16T05:05:14;3.30;;;0.73;;
21681;SDS011;11002;48.256;10.084;2023-07-16T05:07:41;0.68;;;0.63;;
21681;SDS011;11002;48.256;10.084;2023-07-16T05:10:09;0.82;;;0.75;;
21681;SDS011;11002;48.256;10.084;2023-07-16T05:12:38;1.40;;;0.70;;
21681;SDS011;11002;48.256;10.084;2023-07-16T05:15:05;1.25;;;0.90;;
21681;SDS011;11002;48.256;10.084;2023-07-16T05:17:34;2.30;;;1.17;;
21681;SDS011;11002;48.256;10.084;2023-07-16T05:20:01;2.47;;;1.10;;
21681;SDS011;11002;48.256;10.084;2023-07-16T05:22:29;1.67;;;1.13;;
21681;SDS011;11002;48.256;10.084;2023-07-16T05:24:56;2.00;;;0.82;;
21681;SDS011;11002;48.256;10.084;2023-07-16T05:27:24;2.95;;;0.90;;
21681;SDS011;11002;48.256;10.084;2023-07-16T05:29:52;4.03;;;1.10;;
21681;SDS011;11002;48.256;10.084;2023-07-16T05:32:21;1.88;;;0.95;;
21681;SDS011;11002;48.256;10.084;2023-07-16T05:34:48;2.47;;;1.13;;
21681;SDS011;11002;48.256;10.084;2023-07-16T05:37:15;1.52;;;1.05;;
21681;SDS011;11002;48.256;10.084;2023-07-16T05:39:43;1.75;;;0.90;;
21681;SDS011;11002;48.256;10.084;2023-07-16T05:42:10;2.28;;;1.13;;
21681;SDS011;11002;48.256;10.084;2023-07-16T05:44:37;2.38;;;0.98;;
21681;SDS011;11002;48.256;10.084;2023-07-16T05:47:06;1.40;;;1.00;;
21681;SDS011;11002;48.256;10.084;2023-07-16T05:49:34;1.30;;;1.00;;
21681;SDS011;11002;48.256;10.084;2023-07-16T05:52:02;1.83;;;1.10;;
21681;SDS011;11002;48.256;10.084;2023-07-16T05:54:30;3.55;;;1.00;;
21681;SDS011;11002;48.256;10.084;2023-07-16T05:56:58;1.88;;;1.08;;
21681;SDS011;11002;48.256;10.084;2023-07-16T05:59:25;1.20;;;0.95;;
21681;SDS011;11002;48.256;10.084;2023-07-16T06:01:53;2.10;;;1.20;;
21681;SDS011;11002;48.256;10.084;2023-07-16T06:04:24;0.90;;;0.88;;
21681;SDS011;11002;48.256;10.084;2023-07-16T06:06:51;2.47;;;0.85;;
21681;SDS011;11002;48.256;10.084;2023-07-16T06:09:19;1.40;;;1.20;;
21681;SDS011;11002;48.256;10.084;2023-07-16T06:11:46;4.65;;;1.35;;
21681;SDS011;11002;48.256;10.084;2023-07-16T06:14:14;1.90;;;1.00;;
21681;SDS011;11002;48.256;10.084;2023-07-16T06:16:42;3.80;;;1.15;;
21681;SDS011;11002;48.256;10.084;2023-07-16T06:19:09;2.67;;;0.98;;
21681;SDS011;11002;48.256;10.084;2023-07-16T06:21:37;2.25;;;1.00;;
21681;SDS011;11002;48.256;10.084;2023-07-16T06:24:05;0.70;;;0.70;;
21681;SDS011;11002;48.256;10.084;2023-07-16T06:26:32;3.20;;;0.90;;
21681;SDS011;11002;48.256;10.084;2023-07-16T06:28:59;2.70;;;0.80;;
21681;SDS011;11002;48.256;10.084;2023-07-16T06:31:27;3.55;;;1.00;;
21681;SDS011;11002;48.256;10.084;2023-07-16T06:33:54;0.82;;;0.60;;
21681;SDS011;11002;48.256;10.084;2023-07-16T06:36:21;4.85;;;1.10;;
21681;SDS011;11002;48.256;10.084;2023-07-16T06:38:50;1.00;;;0.90;;
21681;SDS011;11002;48.256;10.084;2023-07-16T06:41:17;0.88;;;0.80;;
21681;SDS011;11002;48.256;10.084;2023-07-16T06:43:45;1.23;;;0.80;;
21681;SDS011;11002;48.256;10.084;2023-07-16T06:46:12;0.88;;;0.80;;
21681;SDS011;11002;48.256;10.084;2023-07-16T06:48:39;0.50;;;0.50;;
21681;SDS011;11002;48.256;10.084;2023-07-16T06:51:07;4.95;;;0.90;;
21681;SDS011;11002;48.256;10.084;2023-07-16T06:53:34;2.33;;;1.10;;
21681;SDS011;11002;48.256;10.084;2023-07-16T06:56:03;0.90;;;0.90;;
21681;SDS011;11002;48.256;10.084;2023-07-16T06:58:31;1.20;;;0.80;;
21681;SDS011;11002;48.256;10.084;2023-07-16T07:00:59;1.77;;;1.15;;
21681;SDS011;11002;48.256;10.084;2023-07-16T07:03:26;0.77;;;0.60;;
21681;SDS011;11002;48.256;10.084;2023-07-16T07:05:53;1.85;;;0.88;;
21681;SDS011;11002;48.256;10.084;2023-07-16T07:08:20;2.33;;;0.70;;
21681;SDS011;11002;48.256;10.084;2023-07-16T07:10:48;2.03;;;0.90;;
21681;SDS011;11002;48.256;10.084;2023-07-16T07:13:17;1.55;;;0.98;;
21681;SDS011;11002;48.256;10.084;2023-07-16T07:15:45;1.67;;;1.00;;
21681;SDS011;11002;48.256;10.084;2023-07-16T07:18:12;1.95;;;0.93;;
21681;SDS011;11002;48.256;10.084;2023-07-16T07:20:39;0.80;;;0.80;;
21681;SDS011;11002;48.256;10.084;2023-07-16T07:23:07;0.50;;;0.50;;
21681;SDS011;11002;48.256;10.084;2023-07-16T07:25:34;1.67;;;0.88;;
21681;SDS011;11002;48.256;10.084;2023-07-16T07:28:02;1.70;;;0.70;;
21681;SDS011;11002;48.256;10.084;2023-07-16T07:30:31;0.98;;;0.73;;
21681;SDS011;11002;48.256;10.084;2023-07-16T07:32:59;1.88;;;0.93;;
21681;SDS011;11002;48.256;10.084;2023-07-16T07:35:26;1.55;;;0.60;;
21681;SDS011;11002;48.256;10.084;2023-07-16T07:37:53;1.45;;;1.00;;
21681;SDS011;11002;48.256;10.084;2023-07-16T07:40:20;1.15;;;0.80;;
21681;SDS011;11002;48.256;10.084;2023-07-16T07:42:48;0.95;;;0.60;;
21681;SDS011;11002;48.256;10.084;2023-07-16T07:45:15;3.78;;;0.80;;
21681;SDS011;11002;48.256;10.084;2023-07-16T07:47:44;1.45;;;0.93;;
21681;SDS011;11002;48.256;10.084;2023-07-16T07:50:11;3.40;;;1.00;;
21681;SDS011;11002;48.256;10.084;2023-07-16T07:52:39;2.58;;;0.88;;
21681;SDS011;11002;48.256;10.084;2023-07-16T07:55:06;1.02;;;0.77;;
21681;SDS011;11002;48.256;10.084;2023-07-16T07:57:34;0.68;;;0.68;;
21681;SDS011;11002;48.256;10.084;2023-07-16T08:00:01;1.95;;;0.82;;
21681;SDS011;11002;48.256;10.084;2023-07-16T08:02:38;1.23;;;0.70;;
21681;SDS011;11002;48.256;10.084;2023-07-16T08:05:07;2.00;;;0.90;;
21681;SDS011;11002;48.256;10.084;2023-07-16T08:07:35;3.03;;;0.88;;
21681;SDS011;11002;48.256;10.084;2023-07-16T08:10:02;1.05;;;0.40;;
21681;SDS011;11002;48.256;10.084;2023-07-16T08:12:30;0.80;;;0.80;;
21681;SDS011;11002;48.256;10.084;2023-07-16T08:14:57;0.90;;;0.70;;
21681;SDS011;11002;48.256;10.084;2023-07-16T08:17:25;1.60;;;0.70;;
21681;SDS011;11002;48.256;10.084;2023-07-16T08:19:53;0.80;;;0.60;;
21681;SDS011;11002;48.256;10.084;2023-07-16T08:22:22;1.42;;;0.80;;
21681;SDS011;11002;48.256;10.084;2023-07-16T08:24:50;2.58;;;0.88;;
21681;SDS011;11002;48.256;10.084;2023-07-16T08:27:17;0.82;;;0.80;;
21681;SDS011;11002;48.256;10.084;2023-07-16T08:29:45;0.60;;;0.60;;
21681;SDS011;11002;48.256;10.084;2023-07-16T08:32:12;1.30;;;0.77;;
21681;SDS011;11002;48.256;10.084;2023-07-16T08:34:39;1.95;;;0.60;;
21681;SDS011;11002;48.256;10.084;2023-07-16T08:37:07;1.70;;;0.80;;
21681;SDS011;11002;48.256;10.084;2023-07-16T08:39:35;2.47;;;0.52;;
21681;SDS011;11002;48.256;10.084;2023-07-16T08:42:03;0.75;;;0.40;;
21681;SDS011;11002;48.256;10.084;2023-07-16T08:44:31;1.58;;;0.70;;
21681;SDS011;11002;48.256;10.084;2023-07-16T08:47:02;1.77;;;0.70;;
21681;SDS011;11002;48.256;10.084;2023-07-16T08:49:29;1.05;;;0.65;;
21681;SDS011;11002;48.256;10.084;2023-07-16T08:51:57;1.17;;;0.65;;
21681;SDS011;11002;48.256;10.084;2023-07-16T08:54:25;1.55;;;0.90;;
21681;SDS011;11002;48.256;10.084;2023-07-16T08:56:54;3.08;;;0.93;;
21681;SDS011;11002;48.256;10.084;2023-07-16T08:59:23;1.45;;;1.00;;
21681;SDS011;11002;48.256;10.084;2023-07-16T09:01:52;2.55;;;0.95;;
21681;SDS011;11002;48.256;10.084;2023-07-16T09:04:20;0.90;;;0.70;;
21681;SDS011;11002;48.256;10.084;2023-07-16T09:06:48;2.47;;;0.65;;
21681;SDS011;11002;48.256;10.084;2023-07-16T09:09:19;1.58;;;0.70;;
21681;SDS011;11002;48.256;10.084;2023-07-16T09:11:48;2.28;;;0.63;;
21681;SDS011;11002;48.256;10.084;2023-07-16T09:14:18;2.47;;;0.90;;
21681;SDS011;11002;48.256;10.084;2023-07-16T09:16:47;1.00;;;0.90;;
21681;SDS011;11002;48.256;10.084;2023-07-16T09:19:16;1.50;;;0.90;;
21681;SDS011;11002;48.256;10.084;2023-07-16T09:21:45;1.25;;;0.80;;
21681;SDS011;11002;48.256;10.084;2023-07-16T09:24:13;1.00;;;0.90;;
21681;SDS011;11002;48.256;10.084;2023-07-16T09:26:47;1.13;;;0.75;;
21681;SDS011;11002;48.256;10.084;2023-07-16T09:29:15;0.88;;;0.63;;
21681;SDS011;11002;48.256;10.084;2023-07-16T09:31:54;0.95;;;0.90;;
21681;SDS011;11002;48.256;10.084;2023-07-16T09:34:22;1.60;;;0.82;;
21681;SDS011;11002;48.256;10.084;2023-07-16T09:36:49;2.40;;;1.08;;
21681;SDS011;11002;48.256;10.084;2023-07-16T09:39:17;1.88;;;0.88;;
21681;SDS011;11002;48.256;10.084;2023-07-16T09:41:46;1.10;;;0.80;;
21681;SDS011;11002;48.256;10.084;2023-07-16T09:44:14;0.80;;;0.63;;
21681;SDS011;11002;48.256;10.084;2023-07-16T09:46:43;2.05;;;0.90;;
21681;SDS011;11002;48.256;10.084;2023-07-16T09:49:14;1.00;;;0.73;;
21681;SDS011;11002;48.256;10.084;2023-07-16T09:51:42;0.60;;;0.60;;
21681;SDS011;11002;48.256;10.084;2023-07-16T09:54:12;5.38;;;1.92;;
21681;SDS011;11002;48.256;10.084;2023-07-16T09:56:41;0.95;;;0.77;;
21681;SDS011;11002;48.256;10.084;2023-07-16T09:59:13;0.93;;;0.88;;
21681;SDS011;11002;48.256;10.084;2023-07-16T10:01:43;2.58;;;0.95;;
21681;SDS011;11002;48.256;10.084;2023-07-16T10:04:15;0.85;;;0.82;;
21681;SDS011;11002;48.256;10.084;2023-07-16T10:06:50;1.00;;;0.80;;
21681;SDS011;11002;48.256;10.084;2023-07-16T10:09:34;2.70;;;1.02;;
21681;SDS011;11002;48.256;10.084;2023-07-16T10:12:11;1.10;;;1.00;;
21681;SDS011;11002;48.256;10.084;2023-07-16T10:14:42;0.82;;;0.70;;
21681;SDS011;11002;48.256;10.084;2023-07-16T10:17:13;0.80;;;0.75;;
21681;SDS011;11002;48.256;10.084;2023-07-16T10:19:50;1.33;;;0.80;;
21681;SDS011;11002;48.256;10.084;2023-07-16T10:22:18;1.05;;;0.70;;
21681;SDS011;11002;48.256;10.084;2023-07-16T10:24:52;0.82;;;0.70;;
21681;SDS011;11002;48.256;10.084;2023-07-16T10:27:26;0.90;;;0.70;;
21681;SDS011;11002;48.256;10.084;2023-07-16T10:29:55;1.75;;;1.13;;
21681;SDS011;11002;48.256;10.084;2023-07-16T10:32:25;2.20;;;0.93;;
21681;SDS011;11002;48.256;10.084;2023-07-16T10:34:55;1.42;;;0.80;;
21681;SDS011;11002;48.256;10.084;2023-07-16T10:37:23;1.38;;;0.60;;
21681;SDS011;11002;48.256;10.084;2023-07-16T10:39:51;1.10;;;0.80;;
21681;SDS011;11002;48.256;10.084;2023-07-16T10:42:20;1.10;;;1.00;;
21681;SDS011;11002;48.256;10.084;2023-07-16T10:44:50;2.00;;;0.85;;
21681;SDS011;11002;48.256;10.084;2023-07-16T10:47:19;0.80;;;0.75;;
21681;SDS011;11002;48.256;10.084;2023-07-16T10:49:48;3.05;;;0.75;;
21681;SDS011;11002;48.256;10.084;2023-07-16T10:52:19;1.38;;;0.80;;
21681;SDS011;11002;48.256;10.084;2023-07-16T10:54:47;1.92;;;0.73;;
21681;SDS011;11002;48.256;10.084;2023-07-16T10:57:15;1.70;;;1.00;;
21681;SDS011;11002;48.256;10.084;2023-07-16T10:59:44;0.80;;;0.80;;
21681;SDS011;11002;48.256;10.084;2023-07-16T11:02:14;0.77;;;0.75;;
21681;SDS011;11002;48.256;10.084;2023-07-16T11:04:43;0.73;;;0.65;;
21681;SDS011;11002;48.256;10.084;2023-07-16T11:07:12;1.35;;;0.80;;
21681;SDS011;11002;48.256;10.084;2023-07-16T11:09:42;2.08;;;0.80;;
21681;SDS011;11002;48.256;10.084;2023-07-16T11:12:10;1.08;;;0.82;;
21681;SDS011;11002;48.256;10.084;2023-07-16T11:14:39;0.90;;;0.90;;
21681;SDS011;11002;48.256;10.084;2023-07-16T11:17:10;0.80;;;0.70;;
21681;SDS011;11002;48.256;10.084;2023-07-16T11:19:38;1.10;;;0.98;;
21681;SDS011;11002;48.256;10.084;2023-07-16T11:22:08;0.75;;;0.60;;
21681;SDS011;11002;48.256;10.084;2023-07-16T11:24:36;0.80;;;0.77;;
21681;SDS011;11002;48.256;10.084;2023-07-16T11:27:06;1.13;;;0.70;;
21681;SDS011;11002;48.256;10.084;2023-07-16T11:29:40;1.17;;;0.60;;
21681;SDS011;11002;48.256;10.084;2023-07-16T11:32:11;1.15;;;0.50;;
21681;SDS011;11002;48.256;10.084;2023-07-16T11:34:51;1.33;;;0.90;;
21681;SDS011;11002;48.256;10.084;2023-07-16T11:37:20;1.20;;;0.80;;
21681;SDS011;11002;48.256;10.084;2023-07-16T11:39:47;0.70;;;0.70;;
21681;SDS011;11002;48.256;10.084;2023-07-16T11:42:20;3.20;;;0.80;;
21681;SDS011;11002;48.256;10.084;2023-07-16T11:44:50;1.77;;;0.57;;
21681;SDS011;11002;48.256;10.084;2023-07-16T11:47:18;0.85;;;0.80;;
21681;SDS011;11002;48.256;10.084;2023-07-16T11:49:45;0.80;;;0.80;;
21681;SDS011;11002;48.256;10.084;2023-07-16T11:52:12;1.05;;;0.90;;
21681;SDS011;11002;48.256;10.084;2023-07-16T11:54:40;1.45;;;0.90;;
21681;SDS011;11002;48.256;10.084;2023-07-16T11:57:07;0.70;;;0.70;;
21681;SDS011;11002;48.256;10.084;2023-07-16T11:59:36;1.20;;;0.90;;
21681;SDS011;11002;48.256;10.084;2023-07-16T12:02:03;0.85;;;0.85;;
21681;SDS011;11002;48.256;10.084;2023-07-16T12:04:31;1.40;;;0.85;;
21681;SDS011;11002;48.256;10.084;2023-07-16T12:06:58;1.40;;;0.88;;
21681;SDS011;11002;48.256;10.084;2023-07-16T12:09:25;0.88;;;0.75;;
21681;SDS011;11002;48.256;10.084;2023-07-16T12:11:53;1.35;;;0.90;;
21681;SDS011;11002;48.256;10.084;2023-07-16T12:14:20;0.77;;;0.77;;
21681;SDS011;11002;48.256;10.084;2023-07-16T12:16:49;0.82;;;0.82;;
21681;SDS011;11002;48.256;10.084;2023-07-16T12:19:16;2.45;;;0.80;;
21681;SDS011;11002;48.256;10.084;2023-07-16T12:21:44;0.77;;;0.70;;
21681;SDS011;11002;48.256;10.084;2023-07-16T12:24:11;1.05;;;0.77;;
21681;SDS011;11002;48.256;10.084;2023-07-16T12:26:38;3.67;;;0.80;;
21681;SDS011;11002;48.256;10.084;2023-07-16T12:29:06;1.75;;;0.77;;
21681;SDS011;11002;48.256;10.084;2023-07-16T12:31:33;1.77;;;0.80;;
21681;SDS011;11002;48.256;10.084;2023-07-16T12:34:02;0.80;;;0.80;;
21681;SDS011;11002;48.256;10.084;2023-07-16T12:36:29;1.38;;;1.00;;
21681;SDS011;11002;48.256;10.084;2023-07-16T12:38:57;0.80;;;0.77;;
21681;SDS011;11002;48.256;10.084;2023-07-16T12:41:24;1.42;;;0.80;;
21681;SDS011;11002;48.256;10.084;2023-07-16T12:43:51;2.17;;;0.80;;
21681;SDS011;11002;48.256;10.084;2023-07-16T12:46:19;0.90;;;0.73;;
21681;SDS011;11002;48.256;10.084;2023-07-16T12:48:46;0.90;;;0.90;;
21681;SDS011;11002;48.256;10.084;2023-07-16T12:51:15;0.88;;;0.70;;
21681;SDS011;11002;48.256;10.084;2023-07-16T12:53:42;0.95;;;0.90;;
21681;SDS011;11002;48.256;10.084;2023-07-16T12:56:10;1.45;;;0.85;;
21681;SDS011;11002;48.256;10.084;2023-07-16T12:58:37;1.60;;;0.88;;
21681;SDS011;11002;48.256;10.084;2023-07-16T13:01:04;1.30;;;0.75;;
21681;SDS011;11002;48.256;10.084;2023-07-16T13:03:33;1.35;;;0.82;;
21681;SDS011;11002;48.256;10.084;2023-07-16T13:06:00;1.00;;;0.70;;
21681;SDS011;11002;48.256;10.084;2023-07-16T13:08:30;1.15;;;0.80;;
21681;SDS011;11002;48.256;10.084;2023-07-16T13:10:58;0.80;;;0.80;;
21681;SDS011;11002;48.256;10.084;2023-07-16T13:13:25;1.42;;;0.90;;
21681;SDS011;11002;48.256;10.084;2023-07-16T13:15:53;4.25;;;0.75;;
21681;SDS011;11002;48.256;10.084;2023-07-16T13:18:21;1.30;;;0.77;;
21681;SDS011;11002;48.256;10.084;2023-07-16T13:20:48;3.42;;;0.90;;
21681;SDS011;11002;48.256;10.084;2023-07-16T13:23:15;1.13;;;0.77;;
21681;SDS011;11002;48.256;10.084;2023-07-16T13:25:44;1.02;;;0.80;;
21681;SDS011;11002;48.256;10.084;2023-07-16T13:28:11;2.42;;;1.00;;
21681;SDS011;11002;48.256;10.084;2023-07-16T13:30:39;1.15;;;0.75;;
21681;SDS011;11002;48.256;10.084;2023-07-16T13:33:06;0.70;;;0.70;;
21681;SDS011;11002;48.256;10.084;2023-07-16T13:35:34;0.85;;;0.60;;
21681;SDS011;11002;48.256;10.084;2023-07-16T13:38:01;0.80;;;0.73;;
21681;SDS011;11002;48.256;10.084;2023-07-16T13:40:29;2.92;;;1.05;;
21681;SDS011;11002;48.256;10.084;2023-07-16T13:42:57;1.17;;;0.90;;
21681;SDS011;11002;48.256;10.084;2023-07-16T13:45:25;1.65;;;0.90;;
21681;SDS011;11002;48.256;10.084;2023-07-16T13:47:52;1.02;;;0.85;;
21681;SDS011;11002;48.256;10.084;2023-07-16T13:50:20;2.75;;;0.88;;
21681;SDS011;11002;48.256;10.084;2023-07-16T13:52:48;2.15;;;0.90;;
21681;SDS011;11002;48.256;10.084;2023-07-16T13:55:15;4.85;;;1.00;;
21681;SDS011;11002;48.256;10.084;2023-07-16T13:57:43;1.58;;;1.05;;
21681;SDS011;11002;48.256;10.084;2023-07-16T14:00:13;0.90;;;0.80;;
21681;SDS011;11002;48.256;10.084;2023-07-16T14:02:42;0.77;;;0.70;;
21681;SDS011;11002;48.256;10.084;2023-07-16T14:05:09;0.82;;;0.77;;
21681;SDS011;11002;48.256;10.084;2023-07-16T14:07:37;1.08;;;0.90;;
21681;SDS011;11002;48.256;10.084;2023-07-16T14:10:04;2.25;;;0.90;;
21681;SDS011;11002;48.256;10.084;2023-07-16T14:12:34;0.77;;;0.60;;
21681;SDS011;11002;48.256;10.084;2023-07-16T14:15:01;2.28;;;1.00;;
21681;SDS011;11002;48.256;10.084;2023-07-16T14:17:30;2.97;;;0.80;;
21681;SDS011;11002;48.256;10.084;2023-07-16T14:19:57;2.53;;;0.98;;
21681;SDS011;11002;48.256;10.084;2023-07-16T14:22:25;1.33;;;0.90;;
21681;SDS011;11002;48.256;10.084;2023-07-16T14:24:53;1.92;;;0.73;;
21681;SDS011;11002;48.256;10.084;2023-07-16T14:27:20;1.00;;;0.95;;
21681;SDS011;11002;48.256;10.084;2023-07-16T14:29:48;1.48;;;0.80;;
21681;SDS011;11002;48.256;10.084;2023-07-16T14:32:15;0.95;;;0.88;;
21681;SDS011;11002;48.256;10.084;2023-07-16T14:34:44;1.77;;;0.80;;
21681;SDS011;11002;48.256;10.084;2023-07-16T14:37:11;1.45;;;0.82;;
21681;SDS011;11002;48.256;10.084;2023-07-16T14:39:39;1.10;;;0.90;;